createdAt,value
2023-03-29T00:00:02.981Z,4.94
2023-03-29T00:01:03.126Z,4.98
2023-03-29T00:02:03.030Z,4.99
2023-03-29T00:03:03.146Z,4.99
2023-03-29T00:04:03.117Z,5.00
2023-03-29T00:05:03.059Z,5.02
2023-03-29T00:06:03.185Z,5.03
2023-03-29T00:07:03.052Z,5.03
2023-03-29T00:08:03.052Z,5.05
2023-03-29T00:09:03.062Z,5.08
2023-03-29T00:10:03.073Z,5.07
2023-03-29T00:11:03.285Z,5.04
2023-03-29T00:12:03.088Z,5.04
2023-03-29T00:13:03.129Z,5.05
2023-03-29T00:14:03.116Z,5.05
2023-03-29T00:15:03.121Z,5.05
2023-03-29T00:16:03.135Z,5.07
2023-03-29T00:17:03.181Z,5.08
2023-03-29T00:18:03.180Z,5.08
2023-03-29T00:19:03.174Z,5.09
2023-03-29T00:20:03.179Z,5.06
2023-03-29T00:21:03.314Z,5.06
2023-03-29T00:22:03.203Z,5.07
2023-03-29T00:23:03.207Z,5.05
2023-03-29T00:24:03.222Z,5.02
2023-03-29T00:25:03.227Z,5.00
2023-03-29T00:26:04.256Z,5.01
2023-03-29T00:27:03.256Z,5.00
2023-03-29T00:28:03.267Z,4.97
2023-03-29T00:29:03.271Z,4.95
2023-03-29T00:30:03.284Z,4.93
2023-03-29T00:31:03.480Z,4.91
2023-03-29T00:32:03.303Z,4.86
2023-03-29T00:33:03.350Z,4.85
2023-03-29T00:34:03.322Z,4.88
2023-03-29T00:35:03.337Z,4.89
2023-03-29T00:36:03.380Z,4.91
2023-03-29T00:37:03.353Z,4.91
2023-03-29T00:38:03.362Z,4.93
2023-03-29T00:39:03.378Z,4.94
2023-03-29T00:57:03.909Z,4.96
2023-03-29T00:58:03.577Z,4.95
2023-03-29T00:59:03.593Z,4.95
2023-03-29T01:00:03.605Z,4.94
2023-03-29T01:01:03.763Z,4.95
2023-03-29T01:02:03.632Z,4.95
2023-03-29T01:03:03.807Z,4.96
2023-03-29T01:04:03.659Z,4.93
2023-03-29T01:05:03.650Z,4.95
2023-03-29T01:06:03.658Z,4.93
2023-03-29T01:07:03.701Z,4.93
2023-03-29T01:08:03.686Z,4.92
2023-03-29T01:09:03.700Z,4.94
2023-03-29T01:10:03.716Z,4.92
2023-03-29T01:11:03.927Z,4.91
2023-03-29T01:12:03.735Z,4.93
2023-03-29T01:13:03.755Z,4.90
2023-03-29T01:14:03.754Z,4.89
2023-03-29T01:15:03.765Z,4.91
2023-03-29T01:16:03.798Z,4.88
2023-03-29T01:17:03.787Z,4.88
2023-03-29T01:18:03.823Z,4.87
2023-03-29T01:19:03.806Z,4.89
2023-03-29T01:20:03.819Z,4.89
2023-03-29T01:21:03.996Z,4.89
2023-03-29T01:22:03.849Z,4.86
2023-03-29T01:23:03.866Z,4.86
2023-03-29T01:24:03.867Z,4.86
2023-03-29T01:25:03.884Z,4.88
2023-03-29T01:26:03.902Z,4.86
2023-03-29T01:27:03.904Z,4.86
2023-03-29T01:28:03.907Z,4.86
2023-03-29T01:29:03.922Z,4.85
2023-03-29T01:30:03.927Z,4.83
2023-03-29T01:31:04.044Z,4.83
2023-03-29T01:32:03.993Z,4.81
2023-03-29T01:33:03.991Z,4.78
2023-03-29T01:34:04.003Z,4.77
2023-03-29T01:35:03.998Z,4.76
2023-03-29T01:36:04.020Z,4.77
2023-03-29T01:37:04.012Z,4.78
2023-03-29T01:38:04.039Z,4.75
2023-03-29T01:39:04.032Z,4.75
2023-03-29T01:40:04.082Z,4.71
2023-03-29T01:41:04.351Z,4.73
2023-03-29T01:42:04.061Z,4.72
2023-03-29T01:43:04.102Z,4.67
2023-03-29T01:44:04.084Z,4.67
2023-03-29T01:45:04.095Z,4.65
2023-03-29T01:46:04.152Z,4.62
2023-03-29T01:47:04.117Z,4.63
2023-03-29T01:48:04.141Z,4.59
2023-03-29T01:49:04.135Z,4.61
2023-03-29T01:50:04.139Z,4.61
2023-03-29T01:51:04.374Z,4.60
2023-03-29T01:52:04.161Z,4.55
2023-03-29T01:53:04.173Z,4.53
2023-03-29T01:54:04.173Z,4.53
2023-03-29T01:55:04.183Z,4.50
2023-03-29T01:56:04.192Z,4.47
2023-03-29T01:57:04.239Z,4.50
2023-03-29T01:58:04.220Z,4.48
2023-03-29T01:59:04.220Z,4.50
2023-03-29T02:00:04.234Z,4.46
2023-03-29T02:01:04.501Z,4.45
2023-03-29T02:02:04.300Z,4.43
2023-03-29T02:03:04.350Z,4.43
2023-03-29T02:04:04.275Z,4.42
2023-03-29T02:05:04.274Z,4.39
2023-03-29T02:06:04.284Z,4.40
2023-03-29T02:07:04.287Z,4.34
2023-03-29T02:08:04.299Z,4.32
2023-03-29T02:09:04.307Z,4.30
2023-03-29T02:10:04.324Z,4.25
2023-03-29T02:11:04.528Z,4.24
2023-03-29T02:12:04.353Z,4.22
2023-03-29T02:13:04.362Z,4.20
2023-03-29T02:14:04.376Z,4.15
2023-03-29T02:15:04.385Z,4.14
2023-03-29T02:16:04.453Z,4.10
2023-03-29T02:17:04.412Z,4.09
2023-03-29T02:18:04.435Z,4.05
2023-03-29T02:19:04.445Z,4.01
2023-03-29T02:20:04.464Z,4.00
2023-03-29T02:21:04.548Z,3.97
2023-03-29T02:22:04.471Z,3.93
2023-03-29T02:23:04.484Z,3.92
2023-03-29T02:24:04.498Z,3.89
2023-03-29T02:25:04.498Z,3.89
2023-03-29T02:26:04.517Z,3.86
2023-03-29T02:27:04.533Z,3.87
2023-03-29T02:28:04.551Z,3.82
2023-03-29T02:29:04.555Z,3.81
2023-03-29T02:30:04.560Z,3.80
2023-03-29T02:31:04.769Z,3.78
2023-03-29T02:32:04.582Z,3.77
2023-03-29T02:33:04.647Z,3.76
2023-03-29T02:34:04.598Z,3.73
2023-03-29T02:35:04.603Z,3.71
2023-03-29T02:36:04.705Z,3.74
2023-03-29T02:37:04.639Z,3.71
2023-03-29T02:38:04.645Z,3.71
2023-03-29T02:39:04.658Z,3.71
2023-03-29T02:40:04.666Z,3.70
2023-03-29T02:41:04.679Z,3.70
2023-03-29T02:42:04.687Z,3.67
2023-03-29T02:43:04.700Z,3.65
2023-03-29T02:44:04.712Z,3.67
2023-03-29T02:45:04.715Z,3.67
2023-03-29T02:46:04.761Z,3.67
2023-03-29T02:47:04.743Z,3.67
2023-03-29T02:48:04.792Z,3.70
2023-03-29T02:49:04.768Z,3.71
2023-03-29T02:50:04.781Z,3.67
2023-03-29T02:51:04.821Z,3.70
2023-03-29T02:52:04.795Z,3.71
2023-03-29T02:53:04.814Z,3.72
2023-03-29T02:54:04.824Z,3.71
2023-03-29T02:55:04.841Z,3.71
2023-03-29T02:56:04.854Z,3.74
2023-03-29T02:57:04.905Z,3.74
2023-03-29T02:58:04.878Z,3.73
2023-03-29T02:59:04.894Z,3.74
2023-03-29T03:00:04.905Z,3.76
2023-03-29T03:01:04.919Z,3.76
2023-03-29T03:02:04.960Z,3.75
2023-03-29T03:03:05.046Z,3.77
2023-03-29T03:04:05.020Z,3.76
2023-03-29T03:05:04.969Z,3.78
2023-03-29T03:06:04.981Z,3.80
2023-03-29T03:07:04.996Z,3.82
2023-03-29T03:08:05.006Z,3.84
2023-03-29T03:09:05.019Z,3.85
2023-03-29T03:10:05.031Z,3.90
2023-03-29T03:11:05.036Z,3.91
2023-03-29T03:12:05.041Z,3.92
2023-03-29T03:13:12.783Z,3.89
2023-03-29T03:14:05.061Z,3.92
2023-03-29T03:15:05.074Z,3.91
2023-03-29T03:16:05.145Z,3.94
2023-03-29T03:17:05.116Z,3.91
2023-03-29T03:18:05.195Z,3.94
2023-03-29T03:19:05.129Z,3.95
2023-03-29T03:20:05.132Z,3.95
2023-03-29T03:21:05.209Z,3.96
2023-03-29T03:22:05.159Z,3.97
2023-03-29T03:23:05.180Z,3.98
2023-03-29T03:24:05.182Z,3.98
2023-03-29T03:25:05.192Z,3.99
2023-03-29T03:26:05.202Z,4.02
2023-03-29T03:27:05.216Z,4.00
2023-03-29T03:28:05.220Z,4.00
2023-03-29T03:29:05.225Z,4.02
2023-03-29T03:30:05.233Z,4.01
2023-03-29T03:31:05.245Z,4.00
2023-03-29T03:32:05.354Z,4.00
2023-03-29T03:33:05.290Z,3.99
2023-03-29T03:34:05.270Z,4.00
2023-03-29T03:35:05.280Z,4.01
2023-03-29T03:36:05.319Z,4.01
2023-03-29T03:37:05.304Z,3.99
2023-03-29T03:38:05.315Z,3.97
2023-03-29T03:39:05.328Z,3.96
2023-03-29T03:40:05.335Z,3.94
2023-03-29T03:41:05.748Z,3.92
2023-03-29T03:42:08.104Z,3.91
2023-03-29T03:43:05.371Z,3.93
2023-03-29T03:44:05.379Z,3.90
2023-03-29T03:45:05.393Z,3.88
2023-03-29T03:46:05.451Z,3.89
2023-03-29T03:47:05.429Z,3.88
2023-03-29T03:48:05.460Z,3.86
2023-03-29T03:49:05.440Z,3.87
2023-03-29T03:50:05.457Z,3.83
2023-03-29T03:51:05.460Z,3.81
2023-03-29T03:52:05.471Z,3.82
2023-03-29T03:53:05.500Z,3.79
2023-03-29T03:54:05.496Z,3.80
2023-03-29T03:55:05.497Z,3.80
2023-03-29T03:56:05.518Z,3.80
2023-03-29T03:57:05.554Z,3.77
2023-03-29T03:58:05.548Z,3.78
2023-03-29T03:59:05.597Z,3.81
2023-03-29T04:00:05.570Z,3.82
2023-03-29T04:01:05.618Z,3.80
2023-03-29T04:02:05.657Z,3.82
2023-03-29T04:03:05.731Z,3.81
2023-03-29T04:04:05.645Z,3.83
2023-03-29T04:05:05.646Z,3.84
2023-03-29T04:06:05.652Z,3.84
2023-03-29T04:07:05.670Z,3.84
2023-03-29T04:08:05.679Z,3.86
2023-03-29T04:09:05.702Z,3.81
2023-03-29T04:10:05.715Z,3.83
2023-03-29T04:11:05.735Z,3.83
2023-03-29T04:12:05.753Z,3.85
2023-03-29T04:13:05.767Z,3.88
2023-03-29T04:14:05.774Z,3.89
2023-03-29T04:15:05.782Z,3.91
2023-03-29T04:16:05.840Z,3.91
2023-03-29T04:17:05.816Z,3.93
2023-03-29T04:18:05.896Z,3.93
2023-03-29T04:19:05.819Z,3.93
2023-03-29T04:20:05.825Z,3.94
2023-03-29T04:21:05.841Z,3.96
2023-03-29T04:22:05.847Z,3.95
2023-03-29T04:23:05.864Z,3.95
2023-03-29T04:24:05.883Z,3.95
2023-03-29T04:25:05.890Z,3.95
2023-03-29T04:26:05.906Z,3.95
2023-03-29T04:27:05.925Z,3.96
2023-03-29T04:28:05.935Z,3.95
2023-03-29T04:29:05.954Z,3.95
2023-03-29T04:30:05.960Z,3.95
2023-03-29T04:31:06.111Z,3.96
2023-03-29T04:32:05.972Z,3.94
2023-03-29T04:33:06.088Z,3.96
2023-03-29T04:34:06.001Z,3.97
2023-03-29T04:35:06.017Z,3.95
2023-03-29T04:36:06.069Z,3.93
2023-03-29T04:37:06.041Z,3.92
2023-03-29T04:38:06.056Z,3.92
2023-03-29T04:39:06.058Z,3.90
2023-03-29T04:40:06.069Z,3.91
2023-03-29T04:41:06.093Z,3.89
2023-03-29T04:42:06.103Z,3.91
2023-03-29T04:43:06.122Z,3.91
2023-03-29T04:44:06.131Z,3.89
2023-03-29T04:45:06.210Z,3.90
2023-03-29T04:46:06.160Z,3.88
2023-03-29T04:47:06.165Z,3.90
2023-03-29T04:48:06.196Z,3.91
2023-03-29T04:49:06.183Z,3.92
2023-03-29T04:50:06.194Z,3.94
2023-03-29T04:51:06.216Z,3.94
2023-03-29T04:52:06.224Z,3.95
2023-03-29T04:53:06.247Z,3.94
2023-03-29T04:54:06.243Z,3.97
2023-03-29T04:55:06.267Z,3.95
2023-03-29T04:56:06.275Z,3.97
2023-03-29T04:57:06.332Z,3.98
2023-03-29T04:58:06.300Z,3.98
2023-03-29T04:59:06.319Z,3.98
2023-03-29T05:00:06.328Z,3.98
2023-03-29T05:01:06.342Z,3.98
2023-03-29T05:02:06.382Z,4.00
2023-03-29T05:03:06.383Z,4.01
2023-03-29T05:04:06.395Z,4.02
2023-03-29T05:05:06.384Z,4.05
2023-03-29T05:06:06.390Z,4.05
2023-03-29T05:07:06.412Z,4.05
2023-03-29T05:08:06.417Z,4.05
2023-03-29T05:09:06.421Z,4.08
2023-03-29T05:10:06.428Z,4.08
2023-03-29T05:11:06.438Z,4.09
2023-03-29T05:12:06.450Z,4.07
2023-03-29T05:13:06.465Z,4.11
2023-03-29T05:14:06.480Z,4.10
2023-03-29T05:15:06.477Z,4.11
2023-03-29T05:16:06.502Z,4.09
2023-03-29T05:17:06.553Z,4.11
2023-03-29T05:18:06.583Z,4.08
2023-03-29T05:19:06.539Z,4.11
2023-03-29T05:20:06.533Z,4.11
2023-03-29T05:21:06.543Z,4.12
2023-03-29T05:22:06.562Z,4.14
2023-03-29T05:23:06.575Z,4.14
2023-03-29T05:24:06.596Z,4.13
2023-03-29T05:25:06.598Z,4.14
2023-03-29T05:26:06.617Z,4.14
2023-03-29T05:27:06.633Z,4.14
2023-03-29T05:28:06.648Z,4.14
2023-03-29T05:29:06.660Z,4.14
2023-03-29T05:30:06.669Z,4.14
2023-03-29T05:31:06.721Z,4.14
2023-03-29T05:32:06.771Z,4.13
2023-03-29T05:33:06.716Z,4.15
2023-03-29T05:34:06.718Z,4.15
2023-03-29T05:35:06.735Z,4.14
2023-03-29T05:36:06.769Z,4.15
2023-03-29T05:37:06.766Z,4.16
2023-03-29T05:38:06.766Z,4.16
2023-03-29T05:39:06.798Z,4.17
2023-03-29T05:40:06.799Z,4.17
2023-03-29T05:41:06.804Z,4.18
2023-03-29T05:42:06.809Z,4.20
2023-03-29T05:43:06.829Z,4.22
2023-03-29T05:44:06.821Z,4.25
2023-03-29T05:45:06.846Z,4.26
2023-03-29T05:46:06.877Z,4.25
2023-03-29T05:47:06.858Z,4.25
2023-03-29T05:48:06.920Z,4.29
2023-03-29T05:49:06.885Z,4.33
2023-03-29T05:50:06.893Z,4.34
2023-03-29T05:51:06.900Z,4.37
2023-03-29T05:52:06.924Z,4.37
2023-03-29T05:53:06.930Z,4.39
2023-03-29T05:54:06.949Z,4.41
2023-03-29T05:55:06.953Z,4.46
2023-03-29T05:56:06.974Z,4.49
2023-03-29T05:57:06.996Z,4.53
2023-03-29T05:58:07.000Z,4.54
2023-03-29T05:59:07.011Z,4.57
2023-03-29T06:00:07.052Z,4.59
2023-03-29T06:01:07.030Z,4.60
2023-03-29T06:02:07.066Z,4.62
2023-03-29T06:03:13.928Z,4.68
2023-03-29T06:04:07.106Z,4.71
2023-03-29T06:05:07.164Z,4.74
2023-03-29T06:06:07.090Z,4.73
2023-03-29T06:07:07.106Z,4.78
2023-03-29T06:08:07.131Z,4.80
2023-03-29T06:09:07.124Z,4.81
2023-03-29T06:10:07.142Z,4.83
2023-03-29T06:11:07.296Z,4.84
2023-03-29T06:12:07.169Z,4.89
2023-03-29T06:13:07.176Z,4.88
2023-03-29T06:14:07.180Z,4.91
2023-03-29T06:15:07.196Z,4.93
2023-03-29T06:16:07.203Z,4.93
2023-03-29T06:17:07.249Z,4.95
2023-03-29T06:18:07.250Z,5.02
2023-03-29T06:19:07.236Z,5.05
2023-03-29T06:20:07.260Z,5.06
2023-03-29T06:21:07.265Z,5.09
2023-03-29T06:22:07.270Z,5.14
2023-03-29T06:23:07.292Z,5.18
2023-03-29T06:24:07.304Z,5.19
2023-03-29T06:25:07.312Z,5.22
2023-03-29T06:26:07.347Z,5.25
2023-03-29T06:27:07.358Z,5.29
2023-03-29T06:28:07.362Z,5.32
2023-03-29T06:29:07.375Z,5.31
2023-03-29T06:30:07.383Z,5.29
2023-03-29T06:31:07.511Z,5.33
2023-03-29T06:32:07.416Z,5.33
2023-03-29T06:33:07.446Z,5.34
2023-03-29T06:34:07.447Z,5.38
2023-03-29T06:35:07.457Z,5.37
2023-03-29T06:36:07.510Z,5.42
2023-03-29T06:37:07.480Z,5.44
2023-03-29T06:38:07.498Z,5.49
2023-03-29T06:39:07.508Z,5.49
2023-03-29T06:40:07.524Z,5.55
2023-03-29T06:41:07.538Z,5.54
2023-03-29T06:42:17.055Z,5.56
2023-03-29T06:43:07.562Z,5.58
2023-03-29T06:44:07.586Z,5.59
2023-03-29T06:45:07.590Z,5.61
2023-03-29T06:46:07.608Z,5.66
2023-03-29T06:47:07.609Z,5.68
2023-03-29T06:48:07.877Z,5.67
2023-03-29T06:49:07.648Z,5.70
2023-03-29T06:50:07.996Z,5.74
2023-03-29T06:51:07.676Z,5.75
2023-03-29T06:52:07.696Z,5.82
2023-03-29T06:53:07.700Z,5.84
2023-03-29T06:54:07.741Z,5.89
2023-03-29T06:55:07.754Z,5.93
2023-03-29T06:56:07.728Z,5.99
2023-03-29T06:57:07.798Z,6.00
2023-03-29T06:58:07.740Z,6.04
2023-03-29T06:59:07.749Z,6.05
2023-03-29T07:00:07.769Z,6.08
2023-03-29T07:01:07.772Z,6.11
2023-03-29T07:02:07.804Z,6.15
2023-03-29T07:03:07.847Z,6.15
2023-03-29T07:04:08.168Z,6.17
2023-03-29T07:05:07.804Z,6.21
2023-03-29T07:06:07.807Z,6.26
2023-03-29T07:07:07.825Z,6.30
2023-03-29T07:08:07.852Z,6.35
2023-03-29T07:09:07.885Z,6.40
2023-03-29T07:10:07.857Z,6.45
2023-03-29T07:11:07.886Z,6.48
2023-03-29T07:12:07.901Z,6.53
2023-03-29T07:13:07.913Z,6.52
2023-03-29T07:14:07.921Z,6.55
2023-03-29T07:15:07.935Z,6.54
2023-03-29T07:16:07.988Z,6.56
2023-03-29T07:17:07.954Z,6.55
2023-03-29T07:18:08.050Z,6.59
2023-03-29T07:19:07.984Z,6.56
2023-03-29T07:20:07.995Z,6.58
2023-03-29T07:21:08.020Z,6.63
2023-03-29T07:22:08.034Z,6.64
2023-03-29T07:23:08.045Z,6.68
2023-03-29T07:24:08.078Z,6.71
2023-03-29T07:25:08.053Z,6.79
2023-03-29T07:26:08.072Z,6.78
2023-03-29T07:27:08.078Z,6.80
2023-03-29T07:28:08.093Z,6.85
2023-03-29T07:29:08.097Z,6.87
2023-03-29T07:30:08.130Z,6.88
2023-03-29T07:31:08.124Z,6.89
2023-03-29T07:32:08.130Z,6.93
2023-03-29T07:33:08.174Z,6.94
2023-03-29T07:34:08.148Z,7.00
2023-03-29T07:35:08.163Z,7.02
2023-03-29T07:36:08.215Z,7.07
2023-03-29T07:37:08.173Z,7.11
2023-03-29T07:38:08.203Z,7.13
2023-03-29T07:39:08.202Z,7.18
2023-03-29T07:40:08.208Z,7.18
2023-03-29T07:41:08.290Z,7.23
2023-03-29T07:42:08.238Z,7.27
2023-03-29T07:43:08.256Z,7.32
2023-03-29T07:44:08.270Z,7.40
2023-03-29T07:45:08.358Z,7.45
2023-03-29T07:46:08.312Z,7.50
2023-03-29T07:47:08.292Z,7.57
2023-03-29T07:48:08.379Z,7.61
2023-03-29T07:49:08.335Z,7.66
2023-03-29T07:50:08.347Z,7.70
2023-03-29T07:51:08.363Z,7.76
2023-03-29T07:52:08.373Z,7.75
2023-03-29T07:53:08.382Z,7.85
2023-03-29T07:54:08.398Z,7.92
2023-03-29T07:55:08.422Z,7.96
2023-03-29T07:56:08.427Z,8.04
2023-03-29T07:57:08.446Z,8.11
2023-03-29T07:58:08.442Z,8.18
2023-03-29T07:59:08.440Z,8.28
2023-03-29T08:00:08.454Z,8.33
2023-03-29T08:01:08.600Z,8.42
2023-03-29T08:02:08.460Z,8.49
2023-03-29T08:03:08.522Z,8.52
2023-03-29T08:04:08.617Z,8.58
2023-03-29T08:05:08.534Z,8.59
2023-03-29T08:06:08.530Z,8.66
2023-03-29T08:07:08.538Z,8.63
2023-03-29T08:08:08.553Z,8.67
2023-03-29T08:09:08.556Z,8.65
2023-03-29T08:10:08.578Z,8.66
2023-03-29T08:11:08.589Z,8.65
2023-03-29T08:12:08.606Z,8.64
2023-03-29T08:13:08.602Z,8.66
2023-03-29T08:14:08.621Z,8.66
2023-03-29T08:15:08.646Z,8.65
2023-03-29T08:16:08.678Z,8.60
2023-03-29T08:17:08.669Z,8.61
2023-03-29T08:18:08.719Z,8.59
2023-03-29T08:19:08.680Z,8.63
2023-03-29T08:20:08.716Z,8.67
2023-03-29T08:21:08.717Z,8.66
2023-03-29T08:22:08.720Z,8.70
2023-03-29T08:23:08.741Z,8.68
2023-03-29T08:24:08.753Z,8.68
2023-03-29T08:25:08.763Z,8.72
2023-03-29T08:26:08.790Z,8.70
2023-03-29T08:27:08.794Z,8.72
2023-03-29T08:28:08.803Z,8.72
2023-03-29T08:29:08.810Z,8.71
2023-03-29T08:30:08.831Z,8.69
2023-03-29T08:31:08.856Z,8.70
2023-03-29T08:32:08.867Z,8.73
2023-03-29T08:33:08.877Z,8.74
2023-03-29T08:34:08.873Z,8.76
2023-03-29T08:35:08.878Z,8.78
2023-03-29T08:36:08.982Z,8.79
2023-03-29T08:37:08.907Z,8.81
2023-03-29T08:38:08.920Z,8.86
2023-03-29T08:39:08.935Z,8.88
2023-03-29T08:40:08.963Z,8.87
2023-03-29T08:41:08.983Z,8.92
2023-03-29T08:42:08.996Z,8.96
2023-03-29T08:43:09.002Z,8.97
2023-03-29T08:44:09.038Z,8.99
2023-03-29T08:45:09.028Z,9.08
2023-03-29T08:46:09.079Z,9.16
2023-03-29T08:47:09.059Z,9.23
2023-03-29T08:48:09.083Z,9.28
2023-03-29T08:49:09.092Z,9.37
2023-03-29T08:50:09.106Z,9.47
2023-03-29T08:51:10.123Z,9.52
2023-03-29T08:52:09.137Z,9.56
2023-03-29T08:53:09.144Z,9.67
2023-03-29T08:54:09.144Z,9.71
2023-03-29T08:55:09.152Z,9.76
2023-03-29T08:56:09.160Z,9.81
2023-03-29T08:57:09.197Z,9.85
2023-03-29T08:58:09.173Z,9.88
2023-03-29T08:59:09.179Z,9.91
2023-03-29T09:00:09.204Z,9.94
2023-03-29T09:01:09.240Z,9.98
2023-03-29T09:02:09.283Z,10.01
2023-03-29T09:03:09.293Z,10.05
2023-03-29T09:04:09.327Z,10.06
2023-03-29T09:05:09.262Z,10.15
2023-03-29T09:06:09.277Z,10.19
2023-03-29T09:07:09.279Z,10.23
2023-03-29T09:08:09.300Z,10.27
2023-03-29T09:09:09.309Z,10.29
2023-03-29T09:10:09.311Z,10.29
2023-03-29T09:11:09.323Z,10.31
2023-03-29T09:12:09.327Z,10.38
2023-03-29T09:13:09.358Z,10.45
2023-03-29T09:14:09.336Z,10.47
2023-03-29T09:15:09.351Z,10.54
2023-03-29T09:16:09.368Z,10.59
2023-03-29T09:17:09.357Z,10.66
2023-03-29T09:18:09.460Z,10.73
2023-03-29T09:19:09.373Z,10.80
2023-03-29T09:20:09.378Z,10.82
2023-03-29T09:21:09.389Z,10.84
2023-03-29T09:22:09.394Z,10.93
2023-03-29T09:23:09.406Z,11.07
2023-03-29T09:24:09.415Z,11.09
2023-03-29T09:25:09.420Z,11.12
2023-03-29T09:26:09.438Z,11.19
2023-03-29T09:27:09.446Z,11.23
2023-03-29T09:28:09.451Z,11.27
2023-03-29T09:29:09.770Z,11.27
2023-03-29T09:30:09.479Z,11.29
2023-03-29T09:31:09.502Z,11.28
2023-03-29T09:32:09.485Z,11.28
2023-03-29T09:33:09.495Z,11.27
2023-03-29T09:34:09.528Z,11.31
2023-03-29T09:35:09.505Z,11.30
2023-03-29T09:36:09.557Z,11.27
2023-03-29T09:37:09.513Z,11.22
2023-03-29T09:38:09.528Z,11.16
2023-03-29T09:39:09.528Z,11.02
2023-03-29T09:40:09.534Z,11.05
2023-03-29T09:41:09.542Z,11.03
2023-03-29T09:42:09.544Z,11.05
2023-03-29T09:43:09.561Z,11.09
2023-03-29T09:44:12.832Z,11.13
2023-03-29T09:45:09.571Z,11.13
2023-03-29T09:46:09.588Z,11.09
2023-03-29T09:47:09.577Z,11.17
2023-03-29T09:48:09.618Z,11.18
2023-03-29T09:49:09.599Z,11.27
2023-03-29T09:50:16.804Z,11.28
2023-03-29T09:51:09.602Z,11.28
2023-03-29T09:52:09.609Z,11.29
2023-03-29T09:53:09.616Z,11.25
2023-03-29T09:54:09.621Z,11.22
2023-03-29T09:55:09.628Z,11.23
2023-03-29T09:56:09.633Z,11.24
2023-03-29T09:57:09.683Z,11.23
2023-03-29T09:58:09.645Z,11.25
2023-03-29T09:59:09.650Z,11.30
2023-03-29T10:00:09.659Z,11.32
2023-03-29T10:01:09.679Z,11.37
2023-03-29T10:02:09.678Z,11.30
2023-03-29T10:03:10.779Z,11.30
2023-03-29T10:04:09.695Z,11.30
2023-03-29T10:05:09.691Z,11.38
2023-03-29T10:06:09.706Z,11.39
2023-03-29T10:07:09.703Z,11.40
2023-03-29T10:08:09.707Z,11.44
2023-03-29T10:09:09.714Z,11.42
2023-03-29T10:10:09.724Z,11.44
2023-03-29T10:11:09.728Z,11.46
2023-03-29T10:12:09.731Z,11.48
2023-03-29T10:13:09.738Z,11.45
2023-03-29T10:14:09.742Z,11.44
2023-03-29T10:15:13.955Z,11.42
2023-03-29T10:16:09.783Z,11.43
2023-03-29T10:17:09.770Z,11.42
2023-03-29T10:18:09.782Z,11.47
2023-03-29T10:19:09.774Z,11.44
2023-03-29T10:20:10.198Z,11.43
2023-03-29T10:21:09.786Z,11.43
2023-03-29T10:22:09.794Z,11.43
2023-03-29T10:23:09.799Z,11.45
2023-03-29T10:24:09.805Z,11.43
2023-03-29T10:25:09.812Z,11.44
2023-03-29T10:26:09.817Z,11.43
2023-03-29T10:27:09.827Z,11.47
2023-03-29T10:28:09.828Z,11.54
2023-03-29T10:29:09.836Z,11.53
2023-03-29T10:30:09.857Z,11.56
2023-03-29T10:31:09.871Z,11.56
2023-03-29T10:32:09.880Z,11.61
2023-03-29T10:33:09.890Z,11.63
2023-03-29T10:34:09.873Z,11.65
2023-03-29T10:35:09.875Z,11.67
2023-03-29T10:36:09.916Z,11.66
2023-03-29T10:37:09.893Z,11.64
2023-03-29T10:38:09.893Z,11.58
2023-03-29T10:39:09.904Z,11.50
2023-03-29T10:40:09.909Z,11.47
2023-03-29T10:41:09.921Z,11.45
2023-03-29T10:42:09.923Z,11.45
2023-03-29T10:43:09.925Z,11.46
2023-03-29T10:44:09.941Z,11.49
2023-03-29T10:45:09.960Z,11.60
2023-03-29T10:46:09.970Z,11.71
2023-03-29T10:47:09.951Z,11.87
2023-03-29T10:48:09.982Z,11.99
2023-03-29T10:49:09.961Z,12.13
2023-03-29T10:50:09.973Z,12.28
2023-03-29T10:51:09.976Z,12.36
2023-03-29T10:52:09.981Z,12.46
2023-03-29T10:53:09.987Z,12.57
2023-03-29T10:54:10.003Z,12.62
2023-03-29T10:55:10.000Z,12.69
2023-03-29T10:56:10.009Z,12.75
2023-03-29T10:57:10.019Z,12.83
2023-03-29T10:58:10.018Z,12.89
2023-03-29T10:59:10.046Z,13.00
2023-03-29T11:00:10.035Z,13.08
2023-03-29T11:01:10.065Z,13.23
2023-03-29T11:02:10.048Z,13.27
2023-03-29T11:03:10.131Z,13.29
2023-03-29T11:04:10.117Z,13.27
2023-03-29T11:05:10.063Z,13.30
2023-03-29T11:06:10.069Z,13.27
2023-03-29T11:07:10.079Z,13.28
2023-03-29T11:08:10.081Z,13.27
2023-03-29T11:09:10.094Z,13.25
2023-03-29T11:10:10.104Z,13.24
2023-03-29T11:11:10.122Z,13.20
2023-03-29T11:12:15.899Z,13.11
2023-03-29T11:13:10.111Z,13.04
2023-03-29T11:14:10.120Z,13.00
2023-03-29T11:15:10.124Z,12.94
2023-03-29T11:16:10.149Z,12.95
2023-03-29T11:17:10.134Z,12.93
2023-03-29T11:18:10.177Z,12.97
2023-03-29T11:19:10.154Z,12.99
2023-03-29T11:20:10.159Z,13.03
2023-03-29T11:21:10.643Z,13.13
2023-03-29T11:22:10.171Z,13.19
2023-03-29T11:23:10.174Z,13.28
2023-03-29T11:24:10.181Z,13.23
2023-03-29T11:25:10.205Z,13.26
2023-03-29T11:26:10.203Z,13.30
2023-03-29T11:27:10.211Z,13.35
2023-03-29T11:28:10.218Z,13.29
2023-03-29T11:29:10.226Z,13.28
2023-03-29T11:30:10.230Z,13.17
2023-03-29T11:31:10.316Z,13.12
2023-03-29T11:32:10.276Z,13.10
2023-03-29T11:33:10.261Z,13.00
2023-03-29T11:34:10.262Z,12.95
2023-03-29T11:35:10.268Z,12.86
2023-03-29T11:36:10.317Z,12.84
2023-03-29T11:37:10.279Z,12.77
2023-03-29T11:38:10.284Z,12.71
2023-03-29T11:39:10.290Z,12.67
2023-03-29T11:40:10.298Z,12.65
2023-03-29T11:41:10.310Z,12.60
2023-03-29T11:42:10.312Z,12.50
2023-03-29T11:43:10.324Z,12.49
2023-03-29T11:44:10.329Z,12.41
2023-03-29T11:45:10.335Z,12.27
2023-03-29T11:46:10.369Z,12.19
2023-03-29T11:47:10.348Z,12.04
2023-03-29T11:48:10.374Z,11.92
2023-03-29T11:49:10.365Z,11.86
2023-03-29T11:50:10.435Z,11.85
2023-03-29T11:51:10.380Z,11.91
2023-03-29T11:52:10.398Z,11.96
2023-03-29T11:53:10.398Z,12.02
2023-03-29T11:54:10.405Z,12.00
2023-03-29T11:55:10.415Z,12.01
2023-03-29T11:56:10.420Z,12.08
2023-03-29T11:57:10.456Z,12.03
2023-03-29T11:58:10.436Z,12.00
2023-03-29T11:59:10.481Z,11.96
2023-03-29T12:00:10.532Z,11.93
2023-03-29T12:01:10.459Z,11.85
2023-03-29T12:02:10.508Z,11.84
2023-03-29T12:03:10.592Z,11.87
2023-03-29T12:04:10.521Z,11.85
2023-03-29T12:05:10.493Z,11.89
2023-03-29T12:06:10.504Z,11.81
2023-03-29T12:07:10.551Z,11.60
2023-03-29T12:08:10.528Z,11.51
2023-03-29T12:09:10.534Z,11.51
2023-03-29T12:10:10.543Z,11.51
2023-03-29T12:11:10.549Z,11.56
2023-03-29T12:12:10.561Z,11.63
2023-03-29T12:13:10.564Z,11.63
2023-03-29T12:14:10.577Z,11.60
2023-03-29T12:15:10.579Z,11.61
2023-03-29T12:16:10.622Z,11.66
2023-03-29T12:17:10.593Z,11.67
2023-03-29T12:18:10.619Z,11.66
2023-03-29T12:19:10.603Z,11.67
2023-03-29T12:20:10.616Z,11.67
2023-03-29T12:21:10.622Z,11.68
2023-03-29T12:22:10.630Z,11.68
2023-03-29T12:23:10.628Z,11.66
2023-03-29T12:24:10.634Z,11.59
2023-03-29T12:25:10.643Z,11.52
2023-03-29T12:26:10.645Z,11.49
2023-03-29T12:27:10.656Z,11.46
2023-03-29T12:28:10.658Z,11.41
2023-03-29T12:29:10.662Z,11.38
2023-03-29T12:30:10.669Z,11.35
2023-03-29T12:31:10.680Z,11.34
2023-03-29T12:32:10.763Z,11.32
2023-03-29T12:33:11.262Z,11.35
2023-03-29T12:34:10.699Z,11.31
2023-03-29T12:35:10.720Z,11.31
2023-03-29T12:36:10.794Z,11.31
2023-03-29T12:37:10.714Z,11.31
2023-03-29T12:38:10.725Z,11.31
2023-03-29T12:39:10.728Z,11.26
2023-03-29T12:40:10.733Z,11.25
2023-03-29T12:41:10.741Z,11.22
2023-03-29T12:42:10.754Z,11.22
2023-03-29T12:43:10.757Z,11.22
2023-03-29T12:44:10.843Z,11.20
2023-03-29T12:45:10.774Z,11.23
2023-03-29T12:46:10.831Z,11.22
2023-03-29T12:47:10.791Z,11.24
2023-03-29T12:48:10.834Z,11.29
2023-03-29T12:49:10.805Z,11.36
2023-03-29T12:50:10.817Z,11.39
2023-03-29T12:51:10.831Z,11.42
2023-03-29T12:52:10.832Z,11.50
2023-03-29T12:53:10.838Z,11.57
2023-03-29T12:54:10.850Z,11.61
2023-03-29T12:55:10.853Z,11.60
2023-03-29T12:56:10.857Z,11.66
2023-03-29T12:57:10.879Z,11.71
2023-03-29T12:58:10.875Z,11.73
2023-03-29T12:59:10.885Z,11.81
2023-03-29T13:00:10.895Z,11.92
2023-03-29T13:01:11.054Z,11.99
2023-03-29T13:02:10.934Z,12.11
2023-03-29T13:03:10.934Z,12.23
2023-03-29T13:04:10.924Z,12.28
2023-03-29T13:05:10.990Z,12.42
2023-03-29T13:06:10.936Z,12.52
2023-03-29T13:07:10.949Z,12.64
2023-03-29T13:08:10.954Z,12.69
2023-03-29T13:09:10.957Z,12.71
2023-03-29T13:10:10.972Z,12.71
2023-03-29T13:11:10.972Z,12.74
2023-03-29T13:12:10.990Z,12.74
2023-03-29T13:13:10.995Z,12.72
2023-03-29T13:14:11.000Z,12.76
2023-03-29T13:15:11.007Z,12.84
2023-03-29T13:16:11.030Z,12.93
2023-03-29T13:17:18.071Z,12.90
2023-03-29T13:18:12.335Z,12.90
2023-03-29T13:19:11.039Z,12.87
2023-03-29T13:20:11.054Z,12.79
2023-03-29T13:21:11.065Z,12.75
2023-03-29T13:22:11.093Z,12.75
2023-03-29T13:23:11.078Z,12.77
2023-03-29T13:24:11.084Z,12.82
2023-03-29T13:25:11.092Z,12.82
2023-03-29T13:26:11.104Z,12.86